Time;durP1;ratioP1;P1;durP2;ratioP2;P2;SDS_P1;SDS_P2;PMS_P1;PMS_P2;Temp;Humidity;BMP_temperature;BMP_pressure;BME280_temperature;BME280_humidity;BME280_pressure;Samples;Min_cycle;Max_cycle;Signal;HPM_P1;HPM_P2
2023/09/16 04:01:03;;;;;;;8.07;7.27;;;18.60;86.70;;;;;;6165830;22;1276142;-74
2023/09/16 04:03:30;;;;;;;6.47;5.90;;;18.70;86.40;;;;;;6246192;23;20191;-74
2023/09/16 04:05:58;;;;;;;6.40;5.90;;;18.60;86.30;;;;;;6246088;23;20444;-74
2023/09/16 04:08:25;;;;;;;6.30;5.80;;;18.40;84.80;;;;;;6245619;23;20469;-74
2023/09/16 04:10:52;;;;;;;6.13;5.63;;;18.30;84.60;;;;;;6239242;23;20419;-74
2023/09/16 04:13:19;;;;;;;5.97;5.47;;;18.20;84.00;;;;;;6215677;23;20400;-74
2023/09/16 04:15:46;;;;;;;5.33;4.90;;;18.20;83.90;;;;;;6215927;23;20407;-74
2023/09/16 04:18:14;;;;;;;5.93;5.43;;;18.10;83.60;;;;;;6215666;23;20399;-73
2023/09/16 04:20:40;;;;;;;5.60;5.10;;;17.90;83.50;;;;;;6216270;23;20759;-74
2023/09/16 04:23:08;;;;;;;5.63;5.13;;;17.90;84.10;;;;;;6215635;23;20403;-74
2023/09/16 04:25:35;;;;;;;6.40;5.90;;;17.90;84.10;;;;;;6215204;23;20808;-74
2023/09/16 04:28:03;;;;;;;5.77;5.27;;;17.80;83.90;;;;;;6215205;23;20403;-74
2023/09/16 04:30:30;;;;;;;5.97;5.47;;;17.60;84.20;;;;;;6215533;23;20750;-73
2023/09/16 04:32:57;;;;;;;5.43;4.93;;;17.40;85.20;;;;;;6215109;23;20987;-74
2023/09/16 04:35:25;;;;;;;5.90;5.40;;;17.60;85.00;;;;;;6215564;23;20486;-74
2023/09/16 04:37:51;;;;;;;5.90;5.30;;;17.80;84.60;;;;;;6215605;23;20403;-74
2023/09/16 04:40:20;;;;;;;6.47;5.97;;;17.80;84.50;;;;;;6215508;23;20410;-74
2023/09/16 04:42:46;;;;;;;6.20;5.67;;;18.00;83.90;;;;;;6215498;23;20403;-74
2023/09/16 04:45:15;;;;;;;5.70;5.30;;;18.00;83.60;;;;;;6215491;23;20399;-74
2023/09/16 04:47:43;;;;;;;5.87;5.37;;;18.20;83.10;;;;;;6215531;23;20407;-74
2023/09/16 04:50:10;;;;;;;4.90;4.50;;;18.20;82.60;;;;;;6215082;23;20749;-74
2023/09/16 04:52:38;;;;;;;5.17;4.73;;;18.30;82.40;;;;;;6215633;23;20454;-74
2023/09/16 04:55:05;;;;;;;5.20;4.80;;;18.30;82.40;;;;;;6217461;23;20402;-72
2023/09/16 04:57:34;;;;;;;5.40;5.00;;;18.40;81.90;;;;;;6217098;23;20438;-74
2023/09/16 05:00:05;;;;;;;5.00;4.60;;;18.40;81.70;;;;;;6217117;23;20894;-74
2023/09/16 05:02:32;;;;;;;5.60;5.10;;;18.40;81.70;;;;;;6217273;23;20467;-74
2023/09/16 05:04:59;;;;;;;5.10;4.60;;;18.50;81.50;;;;;;6217436;23;20407;-74
2023/09/16 05:07:25;;;;;;;4.90;4.50;;;18.50;81.50;;;;;;6217466;23;20407;-74
2023/09/16 05:09:53;;;;;;;6.10;5.60;;;18.50;81.30;;;;;;6217395;23;20403;-74
2023/09/16 05:12:20;;;;;;;4.97;4.57;;;18.50;81.30;;;;;;6217089;23;20439;-74
2023/09/16 05:14:47;;;;;;;5.80;5.00;;;18.50;81.50;;;;;;6217276;23;20406;-74
2023/09/16 05:17:13;;;;;;;6.47;5.87;;;18.60;81.60;;;;;;6217266;23;20403;-73
2023/09/16 05:19:40;;;;;;;7.00;6.40;;;18.60;81.70;;;;;;6216957;23;20414;-74
2023/09/16 05:22:07;;;;;;;6.53;5.93;;;18.60;81.90;;;;;;6216769;23;20427;-74
2023/09/16 05:24:34;;;;;;;6.20;5.70;;;18.60;82.30;;;;;;6217305;23;20407;-74
2023/09/16 05:27:02;;;;;;;6.20;5.70;;;18.70;82.10;;;;;;6217233;23;20469;-74
2023/09/16 05:29:29;;;;;;;6.53;6.03;;;18.70;82.30;;;;;;6217161;23;20399;-74
2023/09/16 05:31:58;;;;;;;5.93;5.53;;;18.90;82.50;;;;;;6217025;23;20472;-75
2023/09/16 05:34:24;;;;;;;5.83;5.23;;;19.10;82.20;;;;;;6217121;23;20413;-75
2023/09/16 05:36:51;;;;;;;5.67;5.20;;;19.50;81.30;;;;;;6217158;23;20403;-75
2023/09/16 05:39:18;;;;;;;6.67;6.07;;;19.70;80.70;;;;;;6217141;23;20399;-75
2023/09/16 05:41:44;;;;;;;5.30;4.90;;;19.80;80.80;;;;;;6217053;23;20419;-75
2023/09/16 05:44:13;;;;;;;5.77;5.27;;;20.10;80.30;;;;;;6217036;23;20411;-75
2023/09/16 05:46:39;;;;;;;6.13;5.63;;;20.60;78.80;;;;;;6217069;23;20403;-75
2023/09/16 05:49:09;;;;;;;5.83;5.33;;;20.90;77.30;;;;;;6217014;23;20399;-75
2023/09/16 05:51:36;;;;;;;5.90;5.40;;;21.40;76.50;;;;;;6216812;23;20462;-75
2023/09/16 05:54:03;;;;;;;6.60;6.00;;;22.10;74.60;;;;;;6216669;23;20783;-75
2023/09/16 05:56:30;;;;;;;6.00;5.50;;;22.80;72.80;;;;;;6217091;23;20399;-75
2023/09/16 05:58:57;;;;;;;5.97;5.47;;;23.50;71.20;;;;;;6216984;23;20414;-75
2023/09/16 06:01:24;;;;;;;6.40;5.90;;;24.10;69.40;;;;;;6216658;23;20431;-74
2023/09/16 06:03:52;;;;;;;6.20;5.70;;;24.00;68.70;;;;;;6216431;23;20399;-76
2023/09/16 06:06:19;;;;;;;5.47;5.07;;;24.30;69.20;;;;;;6216917;23;20407;-75
2023/09/16 06:08:46;;;;;;;5.93;5.43;;;24.80;66.30;;;;;;6216924;23;20399;-74
2023/09/16 06:11:13;;;;;;;5.87;5.37;;;25.20;66.40;;;;;;6216382;23;20422;-74
2023/09/16 06:13:39;;;;;;;5.80;5.40;;;25.10;66.60;;;;;;6216718;23;20445;-76
2023/09/16 06:16:07;;;;;;;5.27;4.87;;;24.90;67.00;;;;;;6216727;23;20453;-72
2023/09/16 06:18:35;;;;;;;5.00;4.60;;;25.20;66.00;;;;;;6216560;23;20403;-73
2023/09/16 06:21:02;;;;;;;5.60;5.20;;;25.80;64.60;;;;;;6216775;23;20423;-74
2023/09/16 06:23:29;;;;;;;4.60;4.30;;;26.80;62.70;;;;;;6216912;23;20403;-75
2023/09/16 06:25:56;;;;;;;5.47;5.00;;;27.60;61.90;;;;;;6216738;23;20407;-74
2023/09/16 06:28:22;;;;;;;4.63;4.27;;;28.60;59.90;;;;;;6216395;23;20399;-74
2023/09/16 06:30:49;;;;;;;5.60;5.20;;;29.30;57.60;;;;;;6216567;23;20423;-74
2023/09/16 06:33:15;;;;;;;5.17;4.77;;;29.00;57.60;;;;;;6216635;23;20442;-74
2023/09/16 06:35:44;;;;;;;5.60;5.10;;;28.30;59.20;;;;;;6216617;23;20407;-74
2023/09/16 06:38:11;;;;;;;5.70;5.30;;;28.00;60.50;;;;;;6216340;23;20414;-74
2023/09/16 06:40:38;;;;;;;5.40;5.00;;;28.90;58.90;;;;;;6216043;23;20951;-75
2023/09/16 06:43:04;;;;;;;5.00;4.60;;;29.30;57.40;;;;;;6216680;23;20454;-74
2023/09/16 06:45:31;;;;;;;5.40;5.00;;;28.80;58.40;;;;;;6216474;23;20734;-74
2023/09/16 06:47:58;;;;;;;5.17;4.83;;;28.20;59.20;;;;;;6216560;23;20403;-74
2023/09/16 06:50:24;;;;;;;5.80;5.30;;;27.90;59.90;;;;;;6216294;23;20422;-74
2023/09/16 06:52:52;;;;;;;4.67;4.33;;;27.80;59.90;;;;;;6216363;23;20439;-73
2023/09/16 06:55:19;;;;;;;5.37;4.97;;;27.80;60.30;;;;;;6216444;23;20457;-74
2023/09/16 06:57:46;;;;;;;4.97;4.57;;;28.60;59.60;;;;;;6216373;23;20403;-75
2023/09/16 07:00:14;;;;;;;5.10;4.70;;;29.20;58.10;;;;;;6216293;23;20399;-74
2023/09/16 07:02:41;;;;;;;5.03;4.73;;;29.70;56.80;;;;;;6215761;23;20999;-75
2023/09/16 07:05:10;;;;;;;4.57;4.27;;;30.70;55.00;;;;;;6216346;23;20418;-74
2023/09/16 07:07:36;;;;;;;4.80;4.40;;;31.40;53.70;;;;;;6215848;23;20410;-74
2023/09/16 07:10:05;;;;;;;5.03;4.63;;;31.20;53.80;;;;;;6215813;23;20403;-74
2023/09/16 07:12:32;;;;;;;4.60;4.30;;;30.70;54.50;;;;;;6215964;23;20470;-74
2023/09/16 07:14:59;;;;;;;5.10;4.70;;;29.70;56.90;;;;;;6215829;23;20399;-74
2023/09/16 07:17:25;;;;;;;5.33;4.83;;;29.50;57.60;;;;;;6216695;23;20399;-74
2023/09/16 07:19:52;;;;;;;5.27;4.87;;;28.80;59.10;;;;;;6216179;23;20457;-75
2023/09/16 07:22:20;;;;;;;5.67;5.27;;;28.30;60.40;;;;;;6216018;23;20420;-74
2023/09/16 07:24:46;;;;;;;5.53;5.13;;;27.10;63.00;;;;;;6216062;23;20408;-74
2023/09/16 07:27:15;;;;;;;5.93;5.30;;;26.60;64.40;;;;;;6216079;23;20410;-74
2023/09/16 07:29:42;;;;;;;5.53;5.13;;;26.30;65.40;;;;;;6215729;23;20404;-74
2023/09/16 07:32:08;;;;;;;6.40;5.90;;;26.20;66.20;;;;;;6215870;23;20573;-74
2023/09/16 07:34:35;;;;;;;6.03;5.43;;;25.30;68.30;;;;;;6215999;23;20403;-74
2023/09/16 07:37:03;;;;;;;5.40;5.00;;;25.20;69.00;;;;;;6215987;23;20458;-74
2023/09/16 07:39:30;;;;;;;5.57;5.17;;;25.00;69.10;;;;;;6216027;23;20404;-75
2023/09/16 07:41:57;;;;;;;5.27;4.87;;;24.90;69.90;;;;;;6215869;23;20419;-73
2023/09/16 07:44:26;;;;;;;6.10;5.60;;;25.00;69.90;;;;;;6215900;23;20399;-74
2023/09/16 07:46:53;;;;;;;5.33;4.83;;;25.20;69.10;;;;;;6215980;23;20403;-74
2023/09/16 07:49:19;;;;;;;5.47;5.07;;;25.30;69.60;;;;;;6215917;23;20781;-74
2023/09/16 07:51:46;;;;;;;5.70;5.20;;;25.30;68.80;;;;;;6215379;23;20761;-74
2023/09/16 07:54:14;;;;;;;5.33;4.93;;;25.50;68.20;;;;;;6215802;23;20449;-74
2023/09/16 07:56:41;;;;;;;5.83;5.33;;;25.40;68.80;;;;;;6216062;23;20399;-74
2023/09/16 07:59:08;;;;;;;5.63;4.60;;;25.60;69.10;;;;;;6215769;23;20406;-74
2023/09/16 08:01:36;;;;;;;5.77;5.27;;;25.20;69.30;;;;;;6215439;23;20438;-74
2023/09/16 08:04:02;;;;;;;6.27;5.77;;;25.20;69.30;;;;;;6215746;23;20399;-74
2023/09/16 08:06:29;;;;;;;5.23;4.83;;;24.70;70.50;;;;;;6215704;23;20399;-74
2023/09/16 08:08:56;;;;;;;5.73;5.33;;;24.30;71.30;;;;;;6215821;23;20411;-74
2023/09/16 08:11:22;;;;;;;6.00;5.40;;;24.20;72.00;;;;;;6215602;23;20422;-74
2023/09/16 08:13:51;;;;;;;5.43;4.93;;;24.20;72.70;;;;;;6215619;23;20443;-74
2023/09/16 08:16:17;;;;;;;5.60;5.20;;;24.50;72.20;;;;;;6215720;23;20406;-74
2023/09/16 08:18:46;;;;;;;5.03;4.63;;;24.40;72.50;;;;;;6215327;23;20740;-74
2023/09/16 08:21:12;;;;;;;5.40;4.80;;;24.50;72.10;;;;;;6215684;23;20423;-74
2023/09/16 08:23:39;;;;;;;4.80;4.40;;;24.60;71.40;;;;;;6215678;23;20780;-74
2023/09/16 08:26:06;;;;;;;6.13;5.10;;;25.00;71.00;;;;;;6215567;23;20403;-74
2023/09/16 08:28:35;;;;;;;5.00;4.60;;;25.30;70.90;;;;;;6215533;23;20410;-74
2023/09/16 08:31:02;;;;;;;5.10;4.70;;;25.30;69.40;;;;;;6215592;23;20449;-74
2023/09/16 08:33:29;;;;;;;4.80;4.40;;;25.30;69.40;;;;;;6215511;23;20442;-74
2023/09/16 08:35:57;;;;;;;4.50;4.10;;;25.40;69.20;;;;;;6215614;23;20402;-74
2023/09/16 08:38:23;;;;;;;4.80;4.40;;;25.10;70.00;;;;;;6215658;23;20406;-74
2023/09/16 08:41:03;;;;;;;4.10;3.77;;;25.10;69.60;;;;;;6215519;23;20419;-74
2023/09/16 08:43:35;;;;;;;4.63;4.23;;;25.00;70.70;;;;;;6215531;23;20383;-73
2023/09/16 08:46:03;;;;;;;4.70;4.30;;;25.00;70.10;;;;;;6215909;23;20383;-74
2023/09/16 08:48:34;;;;;;;4.00;3.70;;;25.20;70.40;;;;;;6215046;23;20406;-74
2023/09/16 08:51:05;;;;;;;4.00;3.70;;;25.20;71.20;;;;;;6215443;23;20419;-73
2023/09/16 08:53:35;;;;;;;4.30;4.00;;;25.40;70.10;;;;;;6215388;23;20423;-72
2023/09/16 08:56:03;;;;;;;3.77;3.47;;;25.30;70.20;;;;;;6215427;23;20403;-73
2023/09/16 08:58:34;;;;;;;4.07;3.77;;;25.40;70.40;;;;;;6215433;23;20399;-70
2023/09/16 09:01:02;;;;;;;4.30;3.90;;;25.40;69.50;;;;;;6215181;23;20472;-70
2023/09/16 09:03:30;;;;;;;4.23;3.60;;;25.30;69.90;;;;;;6215028;23;20839;-70
2023/09/16 09:05:56;;;;;;;3.80;3.50;;;25.30;70.30;;;;;;6215001;23;20766;-69
2023/09/16 09:08:25;;;;;;;3.23;2.87;;;24.90;71.10;;;;;;6215376;23;20399;-67
2023/09/16 09:10:52;;;;;;;3.60;3.30;;;25.10;71.20;;;;;;6215360;23;20422;-68
2023/09/16 09:13:20;;;;;;;3.27;2.97;;;25.20;71.40;;;;;;6215303;23;20446;-68
2023/09/16 09:15:48;;;;;;;3.93;3.53;;;25.30;71.50;;;;;;6215323;23;20411;-68
2023/09/16 09:18:18;;;;;;;3.90;3.60;;;25.60;71.50;;;;;;6215956;23;20403;-68
2023/09/16 09:20:44;;;;;;;3.93;3.53;;;25.80;69.60;;;;;;6214816;23;20930;-68
2023/09/16 09:23:11;;;;;;;3.50;3.20;;;25.60;70.80;;;;;;6215339;23;20445;-71
2023/09/16 09:25:41;;;;;;;3.53;3.23;;;25.80;69.70;;;;;;6214917;23;20898;-70
2023/09/16 09:28:08;;;;;;;3.80;3.50;;;25.60;69.70;;;;;;6214895;23;20763;-70
2023/09/16 09:30:35;;;;;;;3.67;3.37;;;25.40;70.60;;;;;;6215490;23;20777;-70
2023/09/16 09:33:01;;;;;;;3.97;3.00;;;25.40;70.50;;;;;;6215555;23;20442;-70
2023/09/16 09:35:30;;;;;;;3.57;2.80;;;25.60;70.70;;;;;;6215235;23;20403;-71
2023/09/16 09:37:57;;;;;;;2.87;2.67;;;25.50;70.80;;;;;;6215313;23;20418;-72
2023/09/16 09:40:24;;;;;;;2.83;2.63;;;25.40;70.00;;;;;;6216850;23;20402;-72
2023/09/16 09:42:55;;;;;;;2.90;2.70;;;25.70;69.70;;;;;;6217282;23;20733;-73
2023/09/16 09:45:23;;;;;;;2.90;2.70;;;25.50;70.30;;;;;;6217379;23;20387;-73
2023/09/16 09:47:52;;;;;;;3.30;2.83;;;25.50;70.70;;;;;;6216649;23;20410;-72
2023/09/16 09:50:20;;;;;;;2.70;2.50;;;25.70;68.80;;;;;;6216963;23;20406;-74
2023/09/16 09:52:47;;;;;;;2.47;2.27;;;25.70;68.50;;;;;;6216906;23;20399;-74
2023/09/16 09:55:16;;;;;;;2.30;2.10;;;25.70;67.90;;;;;;6216994;23;20403;-73
2023/09/16 09:57:45;;;;;;;2.80;2.40;;;26.10;67.80;;;;;;6216940;23;20423;-72
2023/09/16 10:00:15;;;;;;;2.40;2.10;;;26.00;65.40;;;;;;6216907;23;20407;-72
2023/09/16 10:02:42;;;;;;;2.37;2.07;;;25.60;66.50;;;;;;6216370;23;20496;-71
2023/09/16 10:05:14;;;;;;;2.27;2.07;;;25.70;67.70;;;;;;6216889;23;20407;-71
2023/09/16 10:07:41;;;;;;;2.80;2.50;;;26.00;66.40;;;;;;6216839;23;20383;-74
2023/09/16 10:10:13;;;;;;;2.27;2.07;;;26.10;65.90;;;;;;6216420;23;20788;-71
2023/09/16 10:12:40;;;;;;;2.67;2.10;;;26.00;64.60;;;;;;6216593;23;20427;-70
2023/09/16 10:15:08;;;;;;;2.87;1.90;;;26.00;65.60;;;;;;6217579;23;20399;-70
2023/09/16 10:17:36;;;;;;;2.20;1.77;;;26.10;64.50;;;;;;6216755;23;20414;-70
2023/09/16 10:20:03;;;;;;;3.90;1.77;;;25.80;63.10;;;;;;6216793;23;20403;-70
2023/09/16 10:22:30;;;;;;;2.00;1.73;;;25.90;64.10;;;;;;6216265;23;20419;-70
2023/09/16 10:24:57;;;;;;;2.10;1.87;;;25.70;63.70;;;;;;6216636;23;20399;-70
2023/09/16 10:27:26;;;;;;;2.10;1.90;;;25.70;64.30;;;;;;6216623;23;20720;-70
2023/09/16 10:29:56;;;;;;;2.00;1.50;;;25.80;63.90;;;;;;6216960;23;20431;-70
2023/09/16 10:32:23;;;;;;;2.30;1.97;;;26.00;63.40;;;;;;6216490;23;20426;-70
2023/09/16 10:34:52;;;;;;;2.10;1.90;;;26.10;63.20;;;;;;6216689;23;20442;-69
2023/09/16 10:37:20;;;;;;;2.87;2.00;;;26.00;62.10;;;;;;6216190;23;20969;-69
2023/09/16 10:39:47;;;;;;;2.23;2.03;;;26.00;64.00;;;;;;6216515;23;20414;-70
2023/09/16 10:42:17;;;;;;;2.63;2.33;;;26.20;62.00;;;;;;6216412;23;20477;-70
2023/09/16 10:44:44;;;;;;;2.43;2.23;;;26.20;63.10;;;;;;6216493;23;20434;-70
2023/09/16 10:47:11;;;;;;;2.70;2.43;;;26.30;64.90;;;;;;6216507;23;20433;-69
2023/09/16 10:49:38;;;;;;;2.30;2.10;;;26.40;63.40;;;;;;6216496;23;20403;-70
2023/09/16 10:52:10;;;;;;;2.47;2.20;;;26.10;64.10;;;;;;6216273;23;20489;-70
2023/09/16 10:54:41;;;;;;;2.30;1.80;;;26.30;64.50;;;;;;6216349;23;20432;-71
2023/09/16 10:57:15;;;;;;;2.20;1.67;;;26.50;61.80;;;;;;6217410;23;20750;-70
2023/09/16 10:59:45;;;;;;;2.40;1.93;;;26.50;60.90;;;;;;6215983;23;20702;-70
2023/09/16 11:02:23;;;;;;;1.90;1.40;;;26.40;61.90;;;;;;6215773;23;20438;-70
2023/09/16 11:04:50;;;;;;;1.83;1.50;;;26.80;60.80;;;;;;6216292;23;20394;-76
2023/09/16 11:07:19;;;;;;;1.73;1.30;;;27.00;59.00;;;;;;6215903;23;20902;-76
2023/09/16 11:09:48;;;;;;;2.40;1.43;;;27.00;59.00;;;;;;6215868;23;20951;-76
2023/09/16 11:12:17;;;;;;;2.03;1.40;;;27.10;58.80;;;;;;6216177;23;20438;-76
2023/09/16 11:14:44;;;;;;;2.57;1.30;;;27.30;58.60;;;;;;6216068;23;20435;-76
2023/09/16 11:17:13;;;;;;;1.70;1.20;;;27.40;57.20;;;;;;6216092;23;20406;-76
2023/09/16 11:19:40;;;;;;;2.30;1.30;;;27.40;58.10;;;;;;6216152;23;20410;-76
2023/09/16 11:22:07;;;;;;;1.80;1.20;;;27.60;56.60;;;;;;6216078;23;20481;-76
2023/09/16 11:24:35;;;;;;;2.30;1.37;;;27.90;57.90;;;;;;6215645;23;20399;-76
2023/09/16 11:27:03;;;;;;;1.90;1.30;;;28.00;57.50;;;;;;6216042;23;20411;-76
2023/09/16 11:29:31;;;;;;;2.83;1.80;;;27.90;56.90;;;;;;6216044;23;20411;-76
2023/09/16 11:31:58;;;;;;;2.90;1.40;;;28.00;56.60;;;;;;6215942;23;20438;-76
2023/09/16 11:34:26;;;;;;;1.93;1.40;;;28.30;57.10;;;;;;6216292;23;20442;-76
2023/09/16 11:36:54;;;;;;;1.70;1.13;;;28.10;56.90;;;;;;6216051;23;20486;-76
2023/09/16 11:39:24;;;;;;;1.60;1.17;;;28.10;55.70;;;;;;6215953;23;20406;-76
2023/09/16 11:41:53;;;;;;;1.80;1.23;;;28.10;54.20;;;;;;6215908;23;20459;-76
2023/09/16 11:44:20;;;;;;;1.70;1.10;;;28.10;55.80;;;;;;6216068;23;20584;-76
2023/09/16 11:46:47;;;;;;;1.53;1.07;;;28.40;54.00;;;;;;6215882;23;20406;-76
2023/09/16 11:49:16;;;;;;;1.70;1.20;;;28.50;55.60;;;;;;6215903;23;20403;-76
2023/09/16 11:51:42;;;;;;;1.60;1.10;;;28.70;53.60;;;;;;6215335;23;20810;-76
2023/09/16 11:54:09;;;;;;;1.80;1.33;;;28.60;54.00;;;;;;6215689;23;20446;-76
2023/09/16 11:56:36;;;;;;;1.70;1.10;;;28.70;53.90;;;;;;6215401;23;20403;-76
2023/09/16 11:59:05;;;;;;;1.70;1.30;;;28.90;54.90;;;;;;6215744;23;20410;-76
2023/09/16 12:01:33;;;;;;;1.60;1.00;;;29.10;54.80;;;;;;6215305;23;20438;-76
2023/09/16 12:04:03;;;;;;;1.90;1.07;;;29.10;53.00;;;;;;6215753;23;20407;-76
2023/09/16 12:06:31;;;;;;;1.63;1.03;;;29.10;53.00;;;;;;6215726;23;20425;-76
2023/09/16 12:08:59;;;;;;;1.93;1.30;;;28.80;53.30;;;;;;6215747;23;20493;-76
2023/09/16 12:11:27;;;;;;;1.60;1.00;;;28.90;52.60;;;;;;6215554;23;20472;-76
2023/09/16 12:13:54;;;;;;;2.00;1.20;;;28.70;53.50;;;;;;6215200;23;20521;-76
2023/09/16 12:16:22;;;;;;;1.90;1.03;;;28.80;54.20;;;;;;6215700;23;20405;-76
2023/09/16 12:18:49;;;;;;;2.37;1.00;;;29.10;53.20;;;;;;6215684;23;20407;-76
2023/09/16 12:21:16;;;;;;;1.50;0.90;;;29.10;50.80;;;;;;6215630;23;20795;-76
2023/09/16 12:23:45;;;;;;;1.83;1.20;;;29.20;51.40;;;;;;6215941;23;20395;-76
2023/09/16 12:26:12;;;;;;;1.50;1.00;;;28.90;50.90;;;;;;6215620;23;20467;-76
2023/09/16 12:28:40;;;;;;;1.57;0.90;;;29.20;51.20;;;;;;6215501;23;20453;-76
2023/09/16 12:31:09;;;;;;;1.40;0.80;;;29.40;51.20;;;;;;6215167;23;20941;-77
2023/09/16 12:33:43;;;;;;;1.50;1.00;;;29.50;50.90;;;;;;6215506;23;20415;-76
2023/09/16 12:36:14;;;;;;;1.73;1.20;;;29.60;50.30;;;;;;6215258;23;20395;-76
2023/09/16 12:38:41;;;;;;;1.80;1.03;;;29.70;50.20;;;;;;6215573;23;20380;-76
2023/09/16 12:41:08;;;;;;;2.23;1.00;;;29.50;51.00;;;;;;6215427;23;20427;-76
2023/09/16 12:43:35;;;;;;;1.67;1.00;;;29.70;51.10;;;;;;6215852;23;20740;-76
2023/09/16 12:46:04;;;;;;;2.33;1.33;;;29.80;51.30;;;;;;6215503;23;20457;-76
2023/09/16 12:48:31;;;;;;;2.40;1.20;;;29.80;50.70;;;;;;6215451;23;20510;-76
2023/09/16 12:51:01;;;;;;;1.90;1.40;;;30.10;51.50;;;;;;6214955;23;20425;-75
2023/09/16 12:53:28;;;;;;;1.70;1.60;;;30.20;51.60;;;;;;6215011;23;20890;-76
2023/09/16 12:55:56;;;;;;;1.73;1.33;;;30.40;50.20;;;;;;6215518;23;20515;-76
2023/09/16 12:58:24;;;;;;;2.47;1.43;;;30.20;50.20;;;;;;6215040;23;20415;-76
2023/09/16 13:00:51;;;;;;;1.77;1.07;;;30.30;50.50;;;;;;6215148;23;20750;-76
2023/09/16 13:03:18;;;;;;;1.60;1.03;;;30.50;51.10;;;;;;6215522;23;20384;-75
2023/09/16 13:05:50;;;;;;;1.93;1.27;;;30.50;50.30;;;;;;6214985;23;20890;-74
2023/09/16 13:08:20;;;;;;;1.80;1.40;;;30.40;50.50;;;;;;6215476;23;20411;-74
2023/09/16 13:10:47;;;;;;;1.83;1.13;;;30.10;50.10;;;;;;6215725;23;20419;-74
2023/09/16 13:13:15;;;;;;;1.73;1.30;;;30.10;50.70;;;;;;6215484;23;20406;-74
2023/09/16 13:15:43;;;;;;;1.73;1.23;;;30.00;51.30;;;;;;6216901;23;20469;-74
2023/09/16 13:18:10;;;;;;;1.50;1.03;;;30.20;51.20;;;;;;6217375;23;20426;-74
2023/09/16 13:20:40;;;;;;;1.80;1.30;;;30.40;50.70;;;;;;6217239;23;20403;-74
2023/09/16 13:23:07;;;;;;;1.63;1.10;;;30.50;50.90;;;;;;6216937;23;20755;-75
2023/09/16 13:25:38;;;;;;;1.93;1.40;;;30.80;49.10;;;;;;6217210;23;20714;-75
2023/09/16 13:28:12;;;;;;;1.90;1.10;;;30.80;50.10;;;;;;6217149;23;20728;-74
2023/09/16 13:30:41;;;;;;;1.77;1.20;;;30.60;48.60;;;;;;6217176;23;20503;-75
2023/09/16 13:33:09;;;;;;;1.50;1.13;;;30.80;49.40;;;;;;6217198;23;20406;-74
2023/09/16 13:35:37;;;;;;;1.60;1.17;;;31.10;48.90;;;;;;6217350;23;20521;-75
2023/09/16 13:38:05;;;;;;;1.50;0.90;;;31.20;49.70;;;;;;6217193;23;20407;-75
2023/09/16 13:40:32;;;;;;;1.70;1.20;;;31.30;48.90;;;;;;6216979;23;20792;-75
2023/09/16 13:43:00;;;;;;;1.77;1.27;;;31.30;49.10;;;;;;6217090;23;20399;-75
2023/09/16 13:45:27;;;;;;;1.70;1.30;;;31.70;49.40;;;;;;6217400;23;20414;-75
2023/09/16 13:48:11;;;;;;;1.70;1.10;;;31.80;49.00;;;;;;6216623;23;20410;-75
2023/09/16 13:50:42;;;;;;;2.00;0.90;;;31.80;47.90;;;;;;6216519;23;20448;-75
2023/09/16 13:53:09;;;;;;;1.50;0.97;;;31.60;47.30;;;;;;6217574;23;20400;-75
2023/09/16 13:55:36;;;;;;;1.60;1.00;;;31.10;47.50;;;;;;6216913;23;20434;-74
2023/09/16 13:58:04;;;;;;;1.73;1.20;;;30.80;48.40;;;;;;6216938;23;20407;-75
2023/09/16 14:00:31;;;;;;;1.90;1.10;;;30.80;48.80;;;;;;6216783;23;20399;-73
2023/09/16 14:02:58;;;;;;;2.90;1.10;;;30.90;48.60;;;;;;6216418;23;20411;-73
2023/09/16 14:05:26;;;;;;;2.17;0.97;;;30.80;48.20;;;;;;6216423;23;20882;-74
2023/09/16 14:07:54;;;;;;;1.80;0.90;;;30.90;47.60;;;;;;6216770;23;20403;-73
2023/09/16 14:10:22;;;;;;;1.90;1.10;;;31.20;47.30;;;;;;6217141;23;20410;-74
2023/09/16 14:12:49;;;;;;;1.47;0.93;;;31.30;47.40;;;;;;6216810;23;20414;-74
2023/09/16 14:15:17;;;;;;;1.40;0.90;;;31.80;46.30;;;;;;6216579;23;20471;-74
2023/09/16 14:17:44;;;;;;;1.50;1.00;;;32.30;45.80;;;;;;6216694;23;20411;-74
2023/09/16 14:20:11;;;;;;;1.60;0.97;;;32.30;45.00;;;;;;6216834;23;20411;-74
2023/09/16 14:22:38;;;;;;;1.50;0.90;;;31.80;45.70;;;;;;6216584;23;20446;-73
2023/09/16 14:25:05;;;;;;;1.90;1.13;;;31.40;46.80;;;;;;6216626;23;20407;-72
2023/09/16 14:27:32;;;;;;;2.27;1.00;;;31.20;47.60;;;;;;6216331;23;20890;-75
2023/09/16 14:29:59;;;;;;;1.50;0.90;;;31.00;47.80;;;;;;6216282;23;20866;-74
2023/09/16 14:32:28;;;;;;;1.67;1.10;;;31.10;47.70;;;;;;6216203;23;20950;-74
2023/09/16 14:34:55;;;;;;;1.47;0.90;;;31.50;48.10;;;;;;6216077;23;20982;-74
2023/09/16 14:37:23;;;;;;;1.50;0.90;;;32.00;47.10;;;;;;6216569;23;20406;-74
2023/09/16 14:39:49;;;;;;;1.70;1.10;;;32.10;47.00;;;;;;6216619;23;20407;-74
2023/09/16 14:42:16;;;;;;;1.80;0.97;;;33.30;45.00;;;;;;6216478;23;20802;-75
2023/09/16 14:44:43;;;;;;;1.93;1.27;;;35.10;41.30;;;;;;6216566;23;20398;-75
2023/09/16 14:47:12;;;;;;;1.50;1.03;;;36.30;40.20;;;;;;6216512;23;20422;-75
2023/09/16 14:49:41;;;;;;;1.40;0.90;;;38.10;38.30;;;;;;6216529;23;20409;-75
2023/09/16 14:52:07;;;;;;;1.63;1.13;;;39.10;36.20;;;;;;6216418;23;20200;-75
2023/09/16 14:54:34;;;;;;;2.03;1.00;;;39.20;36.30;;;;;;6215946;23;20198;-75
2023/09/16 14:57:01;;;;;;;1.30;0.73;;;39.80;36.40;;;;;;6216433;23;20337;-75
2023/09/16 14:59:28;;;;;;;1.30;1.00;;;41.00;35.10;;;;;;6216384;23;20182;-75
2023/09/16 15:01:55;;;;;;;1.40;1.00;;;41.60;33.90;;;;;;6216163;23;20207;-73
2023/09/16 15:04:22;;;;;;;1.48;1.02;;;41.00;33.50;;;;;;6216286;23;20186;-75
2023/09/16 15:06:50;;;;;;;1.40;1.00;;;40.40;33.40;;;;;;6216257;23;20183;-75
2023/09/16 15:09:16;;;;;;;1.60;1.13;;;39.90;34.20;;;;;;6215864;23;20653;-74
2023/09/16 15:11:43;;;;;;;1.30;0.90;;;39.30;35.80;;;;;;6215763;23;20708;-75
2023/09/16 15:14:10;;;;;;;1.50;1.00;;;39.50;34.70;;;;;;6216091;23;20179;-75
2023/09/16 15:16:36;;;;;;;1.42;1.10;;;39.20;36.30;;;;;;6216175;23;20179;-75
2023/09/16 15:19:03;;;;;;;1.40;0.80;;;38.90;36.10;;;;;;6216106;23;20183;-75
2023/09/16 15:21:30;;;;;;;1.40;0.90;;;38.00;36.00;;;;;;6216088;23;20422;-74
2023/09/16 15:23:58;;;;;;;2.40;1.17;;;36.80;38.30;;;;;;6216068;23;20406;-75
2023/09/16 15:26:25;;;;;;;2.73;1.10;;;35.90;38.70;;;;;;6216034;23;20394;-74
2023/09/16 15:28:55;;;;;;;1.50;0.97;;;35.20;40.90;;;;;;6215729;23;20407;-75
2023/09/16 15:31:22;;;;;;;1.60;1.10;;;33.90;41.80;;;;;;6215896;23;20435;-74
2023/09/16 15:33:49;;;;;;;1.40;0.93;;;32.50;44.00;;;;;;6215892;23;20399;-74
2023/09/16 15:36:15;;;;;;;1.50;1.07;;;32.00;45.00;;;;;;6215528;23;20443;-70
2023/09/16 15:38:42;;;;;;;1.80;1.03;;;31.60;45.70;;;;;;6215897;23;20409;-71
2023/09/16 15:41:10;;;;;;;1.60;1.17;;;31.20;45.70;;;;;;6215899;23;20434;-70
2023/09/16 15:43:38;;;;;;;1.63;1.17;;;30.90;46.50;;;;;;6215841;23;20399;-71
2023/09/16 15:46:07;;;;;;;1.73;1.20;;;30.50;46.40;;;;;;6215459;23;20917;-70
2023/09/16 15:48:34;;;;;;;1.53;1.07;;;30.10;47.40;;;;;;6215779;23;20437;-71
2023/09/16 15:51:01;;;;;;;1.67;1.13;;;30.10;48.00;;;;;;6216109;23;20426;-70
2023/09/16 15:53:28;;;;;;;1.87;1.20;;;30.30;47.00;;;;;;6215473;23;20714;-70
2023/09/16 15:55:56;;;;;;;2.37;1.10;;;30.30;47.80;;;;;;6215680;23;20489;-69
2023/09/16 15:58:24;;;;;;;1.60;1.13;;;30.20;46.70;;;;;;6215404;23;20917;-70
2023/09/16 16:00:52;;;;;;;2.00;1.10;;;30.10;46.60;;;;;;6215230;23;20747;-69
2023/09/16 16:03:20;;;;;;;1.80;0.90;;;29.80;47.40;;;;;;6215817;23;20438;-70
2023/09/16 16:05:47;;;;;;;2.63;1.50;;;29.90;46.80;;;;;;6215773;23;20399;-70
2023/09/16 16:08:15;;;;;;;2.40;1.57;;;29.90;47.40;;;;;;6215799;23;20514;-73
2023/09/16 16:10:42;;;;;;;2.10;1.10;;;29.80;50.20;;;;;;6215628;23;20423;-71
2023/09/16 16:13:09;;;;;;;2.47;1.30;;;29.60;51.50;;;;;;6215687;23;20407;-70
2023/09/16 16:15:37;;;;;;;2.07;1.30;;;29.70;51.60;;;;;;6216928;23;20443;-70
2023/09/16 16:18:04;;;;;;;2.00;1.10;;;29.40;51.80;;;;;;6215720;23;20403;-70
2023/09/16 16:20:31;;;;;;;1.80;1.40;;;29.50;52.00;;;;;;6215627;23;20403;-70
2023/09/16 16:22:58;;;;;;;2.00;1.50;;;29.40;52.40;;;;;;6215345;23;20719;-70
2023/09/16 16:25:26;;;;;;;1.80;1.33;;;29.40;52.40;;;;;;6215964;23;20395;-70
2023/09/16 16:27:53;;;;;;;1.97;1.23;;;29.40;52.30;;;;;;6215297;23;20989;-70
2023/09/16 16:30:20;;;;;;;2.23;1.10;;;29.40;52.70;;;;;;6215579;23;20735;-69
2023/09/16 16:32:48;;;;;;;2.10;1.20;;;29.30;52.50;;;;;;6215631;23;20399;-68
2023/09/16 16:35:15;;;;;;;1.83;1.10;;;29.30;52.90;;;;;;6215477;23;20758;-70
2023/09/16 16:37:42;;;;;;;2.00;1.40;;;29.30;52.60;;;;;;6215650;23;20799;-70
2023/09/16 16:40:10;;;;;;;2.37;1.40;;;29.10;52.80;;;;;;6215559;23;20403;-70
2023/09/16 16:42:36;;;;;;;2.13;1.60;;;29.10;52.50;;;;;;6215507;23;20430;-70
2023/09/16 16:45:04;;;;;;;1.90;1.07;;;29.10;52.50;;;;;;6215120;23;20403;-70
2023/09/16 16:47:30;;;;;;;1.70;1.20;;;29.10;52.90;;;;;;6215356;23;20796;-70
2023/09/16 16:49:59;;;;;;;2.20;1.20;;;29.20;53.20;;;;;;6217130;23;20418;-71